Time;durP1;ratioP1;P1;durP2;ratioP2;P2;SDS_P1;SDS_P2;PMS_P1;PMS_P2;Temp;Humidity;BMP_temperature;BMP_pressure;BME280_temperature;BME280_humidity;BME280_pressure;Samples;Min_cycle;Max_cycle;Signal;HPM_P1;HPM_P2
2022/12/08 00:00:11;;;;;;;7.95;6.13;;;;;;;-1.66;100.00;95380.78;5062630;28;24485;-71
2022/12/08 00:02:37;;;;;;;12.68;8.13;;;;;;;-1.86;100.00;95380.38;5062498;28;24439;-72
2022/12/08 00:10:34;;;;;;;9.85;7.95;;;;;;;-1.72;100.00;95365.69;5061062;28;24569;-71
2022/12/08 00:13:00;;;;;;;9.55;8.50;;;;;;;-1.69;100.00;95369.88;5061007;28;24434;-71
2022/12/08 00:15:27;;;;;;;12.02;9.55;;;;;;;-1.67;100.00;95368.94;5067177;28;24442;-72
2022/12/08 00:17:53;;;;;;;9.52;8.43;;;;;;;-1.67;100.00;95363.88;5068618;28;24851;-72
2022/12/08 00:20:20;;;;;;;11.30;8.82;;;;;;;-1.61;100.00;95365.44;5058541;28;24441;-71
2022/12/08 00:22:46;;;;;;;10.50;8.63;;;;;;;-1.74;100.00;95362.34;5069907;28;24991;-72
2022/12/08 00:25:14;;;;;;;12.88;9.15;;;;;;;-1.84;100.00;95363.41;5068325;28;24435;-72
2022/12/08 00:27:41;;;;;;;8.77;7.78;;;;;;;-1.85;100.00;95362.59;5063751;28;25027;-71
2022/12/08 00:30:08;;;;;;;11.77;7.78;;;;;;;-1.94;100.00;95352.59;5065586;28;24438;-71
2022/12/08 00:32:36;;;;;;;10.00;7.80;;;;;;;-2.00;100.00;95350.22;5069561;28;24446;-72
2022/12/08 00:35:03;;;;;;;8.73;7.22;;;;;;;-2.12;100.00;95351.28;5062954;28;25007;-71
2022/12/08 00:37:30;;;;;;;8.07;7.10;;;;;;;-2.14;100.00;95344.59;5064470;28;24447;-72
2022/12/08 00:39:56;;;;;;;10.13;7.38;;;;;;;-2.18;100.00;95343.81;5058493;28;24454;-72
2022/12/08 00:42:24;;;;;;;9.43;7.07;;;;;;;-2.19;100.00;95337.03;5056299;28;24445;-71
2022/12/08 00:44:50;;;;;;;8.05;7.25;;;;;;;-2.28;100.00;95347.38;5060049;28;24446;-71
2022/12/08 00:47:17;;;;;;;8.95;7.60;;;;;;;-2.37;100.00;95343.34;5069169;28;24526;-72
2022/12/08 00:49:43;;;;;;;7.20;6.47;;;;;;;-2.40;100.00;95335.78;5064845;28;24427;-72
2022/12/08 00:52:11;;;;;;;8.23;6.57;;;;;;;-2.40;100.00;95333.25;5056713;28;24813;-72
2022/12/08 00:54:38;;;;;;;9.50;6.90;;;;;;;-2.36;100.00;95339.09;5062148;28;24446;-72
2022/12/08 00:57:04;;;;;;;7.18;6.35;;;;;;;-2.28;100.00;95342.31;5064832;28;24458;-72
2022/12/08 00:59:32;;;;;;;8.90;6.80;;;;;;;-2.27;100.00;95338.91;5058720;28;24743;-71
2022/12/08 01:01:59;;;;;;;9.48;6.07;;;;;;;-2.16;100.00;95326.00;5064683;28;24470;-71
2022/12/08 01:04:25;;;;;;;10.43;6.30;;;;;;;-2.30;100.00;95328.81;5063743;28;24800;-71
2022/12/08 01:06:52;;;;;;;7.47;6.78;;;;;;;-2.44;100.00;95327.41;5063428;28;25004;-72
2022/12/08 01:09:19;;;;;;;7.95;6.30;;;;;;;-2.45;100.00;95330.81;5060722;28;24439;-72
2022/12/08 01:11:46;;;;;;;11.10;7.28;;;;;;;-2.44;100.00;95322.31;5055203;28;24450;-72
2022/12/08 01:14:13;;;;;;;7.78;6.53;;;;;;;-2.42;100.00;95329.91;5059940;28;24999;-72
2022/12/08 01:16:41;;;;;;;8.18;6.55;;;;;;;-2.35;100.00;95331.44;5065287;28;24450;-71
2022/12/08 01:19:09;;;;;;;6.80;6.10;;;;;;;-2.47;100.00;95335.06;5058076;28;24437;-72
2022/12/08 01:21:36;;;;;;;10.15;6.72;;;;;;;-2.58;100.00;95341.19;5057465;28;24435;-72
2022/12/08 01:24:02;;;;;;;7.73;6.30;;;;;;;-2.75;100.00;95336.44;5063142;28;24435;-71
2022/12/08 01:26:29;;;;;;;8.93;6.70;;;;;;;-2.81;100.00;95347.53;5065396;28;24434;-71
2022/12/08 01:28:55;;;;;;;8.68;6.78;;;;;;;-2.79;100.00;95340.72;5063917;28;24427;-71
2022/12/08 01:31:23;;;;;;;6.85;6.05;;;;;;;-2.64;100.00;95341.31;5056806;28;25140;-71
2022/12/08 01:33:51;;;;;;;7.68;6.88;;;;;;;-2.46;100.00;95346.03;5063721;28;24438;-72
2022/12/08 01:36:21;;;;;;;8.25;6.28;;;;;;;-2.36;100.00;95346.72;5068330;28;25161;-72
2022/12/08 01:38:47;;;;;;;8.30;6.40;;;;;;;-2.33;100.00;95342.41;5059942;28;24444;-72
2022/12/08 01:41:15;;;;;;;7.85;6.55;;;;;;;-2.20;100.00;95338.75;5057383;28;24549;-71
2022/12/08 01:43:57;;;;;;;7.28;6.57;;;;;;;-2.14;100.00;95332.72;5065643;28;24473;-72
2022/12/08 01:46:24;;;;;;;12.80;7.05;;;;;;;-2.41;100.00;95339.19;5062105;28;24566;-72
2022/12/08 01:48:56;;;;;;;9.60;7.15;;;;;;;-2.41;100.00;95341.72;5064859;28;24992;-72
2022/12/08 01:51:23;;;;;;;10.60;7.50;;;;;;;-2.45;100.00;95335.88;5061203;28;25031;-71
2022/12/08 01:53:49;;;;;;;9.68;7.78;;;;;;;-2.47;100.00;95337.59;5061898;28;24439;-72
2022/12/08 01:56:20;;;;;;;11.40;8.05;;;;;;;-2.44;100.00;95334.19;5064891;28;24435;-72
2022/12/08 01:58:51;;;;;;;7.68;6.65;;;;;;;-2.42;100.00;95327.34;5058664;28;25010;-72
2022/12/08 02:01:18;;;;;;;7.38;6.15;;;;;;;-2.40;100.00;95323.09;5060003;28;24523;-72
2022/12/08 02:03:47;;;;;;;7.72;6.82;;;;;;;-2.44;100.00;95319.78;5066984;28;24442;-71
2022/12/08 02:06:17;;;;;;;8.80;6.70;;;;;;;-2.57;100.00;95320.06;5057710;28;24438;-72
2022/12/08 02:08:45;;;;;;;7.65;6.70;;;;;;;-2.69;100.00;95314.34;5063564;28;25015;-71
2022/12/08 02:11:12;;;;;;;8.40;6.25;;;;;;;-2.72;100.00;95309.31;5056826;28;24929;-72
2022/12/08 02:13:41;;;;;;;7.20;6.40;;;;;;;-2.79;100.00;95320.44;5063279;28;24430;-71
2022/12/08 02:16:15;;;;;;;7.90;6.50;;;;;;;-2.71;100.00;95316.09;5059693;28;24501;-71
2022/12/08 02:18:56;;;;;;;7.75;6.13;;;;;;;-2.79;100.00;95317.91;5061638;28;24466;-72
2022/12/08 02:21:29;;;;;;;8.18;6.07;;;;;;;-2.78;100.00;95314.53;5060570;28;24443;-71
2022/12/08 02:24:08;;;;;;;6.93;5.67;;;;;;;-2.74;100.00;95308.53;5067387;28;25022;-71
2022/12/08 02:27:05;;;;;;;6.55;5.82;;;;;;;-2.56;100.00;95306.50;5064657;28;24435;-71
2022/12/08 02:29:53;;;;;;;6.00;5.40;;;;;;;-2.48;100.00;95297.06;5060277;28;24814;-72
2022/12/08 02:32:54;;;;;;;7.50;5.60;;;;;;;-2.71;100.00;95294.94;5049286;28;24448;-72
2022/12/08 02:35:27;;;;;;;11.30;9.00;;;;;;;-2.84;100.00;95286.75;5067638;28;24526;-71
2022/12/08 02:38:04;;;;;;;17.23;12.48;;;;;;;-2.87;100.00;95283.44;5067232;28;24987;-72
2022/12/08 02:40:36;;;;;;;19.75;12.70;;;;;;;-2.82;100.00;95279.94;5062676;28;24441;-72
2022/12/08 02:43:11;;;;;;;17.85;10.70;;;;;;;-2.84;100.00;95284.22;5065804;28;24534;-72
2022/12/08 02:45:43;;;;;;;11.57;9.10;;;;;;;-2.95;100.00;95276.81;5070776;28;24438;-71
2022/12/08 02:48:10;;;;;;;7.65;6.88;;;;;;;-3.01;100.00;95271.84;5058706;28;25655;-72
2022/12/08 02:50:38;;;;;;;7.55;6.35;;;;;;;-3.01;100.00;95271.00;5064634;28;24430;-71
2022/12/08 02:53:05;;;;;;;8.98;6.50;;;;;;;-3.11;100.00;95272.91;5060447;28;25014;-72
2022/12/08 02:55:46;;;;;;;8.35;5.95;;;;;;;-3.19;100.00;95274.72;5071598;28;24438;-72
2022/12/08 02:58:37;;;;;;;9.40;5.60;;;;;;;-3.22;100.00;95272.25;5058639;28;24451;-71
2022/12/08 03:01:20;;;;;;;30.42;7.47;;;;;;;-3.32;100.00;95276.63;5062826;28;24441;-71
2022/12/08 03:03:55;;;;;;;14.27;6.15;;;;;;;-3.34;100.00;95282.56;5069558;28;24523;-72
2022/12/08 03:06:32;;;;;;;23.95;6.40;;;;;;;-3.37;100.00;95275.88;5066360;28;24442;-71
2022/12/08 03:09:03;;;;;;;7.40;6.43;;;;;;;-3.43;100.00;95265.84;5066659;28;25002;-72
2022/12/08 03:11:37;;;;;;;7.32;6.63;;;;;;;-3.36;100.00;95266.59;5062671;28;24439;-71
2022/12/08 03:14:06;;;;;;;7.00;6.00;;;;;;;-3.21;100.00;95258.72;5069817;28;24442;-72
2022/12/08 03:16:38;;;;;;;8.82;6.13;;;;;;;-3.09;100.00;95265.25;5067487;28;24439;-72
2022/12/08 03:19:13;;;;;;;7.60;5.88;;;;;;;-2.98;100.00;95253.22;5060903;28;24437;-71
2022/12/08 03:21:44;;;;;;;7.18;5.88;;;;;;;-2.82;100.00;95257.13;5064531;28;25015;-72
2022/12/08 03:24:12;;;;;;;7.30;6.35;;;;;;;-2.73;100.00;95259.50;5067125;28;24878;-73
2022/12/08 03:26:45;;;;;;;8.48;6.05;;;;;;;-2.63;100.00;95247.50;5063168;28;24457;-72
2022/12/08 03:29:13;;;;;;;10.13;8.63;;;;;;;-2.59;100.00;95243.22;5060259;28;24434;-72
2022/12/08 03:31:45;;;;;;;11.70;9.63;;;;;;;-2.71;100.00;95251.88;5067418;28;24445;-72
2022/12/08 03:34:14;;;;;;;11.45;9.18;;;;;;;-2.83;100.00;95240.25;5069819;28;25002;-72
2022/12/08 03:36:43;;;;;;;9.00;7.72;;;;;;;-2.77;100.00;95246.94;5063067;28;24442;-72
2022/12/08 03:39:10;;;;;;;9.48;7.30;;;;;;;-2.89;100.00;95245.47;5059270;28;24997;-72
2022/12/08 03:41:36;;;;;;;8.55;7.10;;;;;;;-2.91;100.00;95237.06;5064750;28;24438;-71
2022/12/08 03:44:03;;;;;;;8.90;6.53;;;;;;;-2.93;100.00;95229.50;5070006;28;24449;-71
2022/12/08 03:46:31;;;;;;;7.50;6.35;;;;;;;-2.85;100.00;95231.88;5062471;28;24427;-72
2022/12/08 03:48:57;;;;;;;6.80;5.55;;;;;;;-2.79;100.00;95218.22;5068645;28;24504;-71
2022/12/08 03:51:26;;;;;;;7.15;5.55;;;;;;;-2.72;100.00;95224.84;5058823;28;24443;-72
2022/12/08 03:53:54;;;;;;;9.13;5.75;;;;;;;-2.71;100.00;95219.78;5069896;28;24435;-72
2022/12/08 03:56:24;;;;;;;5.85;5.25;;;;;;;-2.75;100.00;95214.78;5057764;28;24805;-71
2022/12/08 03:58:51;;;;;;;5.82;5.22;;;;;;;-2.85;100.00;95218.38;5061743;28;24454;-72
2022/12/08 04:01:18;;;;;;;6.10;5.03;;;;;;;-3.03;100.00;95217.03;5061463;28;24434;-71
2022/12/08 04:03:44;;;;;;;6.18;5.57;;;;;;;-2.88;100.00;95214.19;5063313;28;24443;-72
2022/12/08 04:06:11;;;;;;;5.80;5.13;;;;;;;-2.89;100.00;95207.47;5067365;28;24435;-72
2022/12/08 04:08:38;;;;;;;5.90;5.25;;;;;;;-2.99;100.00;95200.91;5067866;28;24446;-73
2022/12/08 04:11:06;;;;;;;6.95;5.47;;;;;;;-3.15;100.00;95207.97;5059720;28;24438;-71
2022/12/08 04:13:33;;;;;;;6.45;5.65;;;;;;;-3.16;100.00;95209.63;5064142;28;24446;-71
2022/12/08 04:15:59;;;;;;;6.30;5.55;;;;;;;-3.30;100.00;95208.22;5067854;28;24554;-72
2022/12/08 04:18:26;;;;;;;8.93;6.05;;;;;;;-3.41;100.00;95213.50;5063176;28;25012;-72
2022/12/08 04:20:52;;;;;;;6.97;5.47;;;;;;;-3.40;100.00;95210.09;5065240;28;24435;-72
2022/12/08 04:23:19;;;;;;;6.60;5.75;;;;;;;-3.57;100.00;95207.00;5068564;28;24501;-72
2022/12/08 04:25:45;;;;;;;6.88;5.75;;;;;;;-3.64;100.00;95206.28;5057719;28;24442;-72
2022/12/08 04:28:13;;;;;;;7.18;6.13;;;;;;;-3.51;100.00;95211.97;5069334;28;24907;-72
2022/12/08 04:30:40;;;;;;;7.53;5.40;;;;;;;-3.33;100.00;95205.75;5065651;28;24829;-71
2022/12/08 04:33:06;;;;;;;7.63;6.00;;;;;;;-3.17;100.00;95204.59;5068092;28;24446;-72
2022/12/08 04:35:33;;;;;;;9.27;6.47;;;;;;;-3.21;100.00;95200.47;5064658;28;24469;-72
2022/12/08 04:38:00;;;;;;;7.65;5.95;;;;;;;-3.19;100.00;95209.72;5068092;28;24809;-72
2022/12/08 04:40:26;;;;;;;8.20;6.13;;;;;;;-3.17;100.00;95209.69;5065193;28;24434;-73
2022/12/08 04:42:53;;;;;;;7.40;5.90;;;;;;;-3.12;100.00;95201.97;5068242;28;24430;-73
2022/12/08 04:45:20;;;;;;;7.05;5.55;;;;;;;-3.19;100.00;95203.78;5065470;28;24475;-72
2022/12/08 04:47:47;;;;;;;8.57;5.80;;;;;;;-3.18;100.00;95197.88;5068278;28;25014;-71
2022/12/08 04:50:14;;;;;;;7.80;5.70;;;;;;;-3.12;100.00;95196.91;5066246;28;25006;-73
2022/12/08 04:52:40;;;;;;;6.68;5.88;;;;;;;-3.12;100.00;95201.97;5064241;28;25002;-73
2022/12/08 04:55:07;;;;;;;8.45;5.82;;;;;;;-3.14;100.00;95199.50;5064503;28;24942;-71
2022/12/08 04:57:34;;;;;;;8.50;5.47;;;;;;;-3.11;100.00;95196.91;5068739;28;24446;-71
2022/12/08 05:00:00;;;;;;;7.20;5.40;;;;;;;-3.10;100.00;95210.41;5064244;28;24433;-72
2022/12/08 05:02:28;;;;;;;6.78;5.28;;;;;;;-3.27;100.00;95203.09;5069416;28;24792;-73
2022/12/08 05:04:55;;;;;;;6.90;5.30;;;;;;;-3.17;100.00;95194.47;5066872;28;24454;-73
2022/12/08 05:07:21;;;;;;;8.63;5.90;;;;;;;-3.20;100.00;95190.28;5058819;28;24474;-72
2022/12/08 05:09:48;;;;;;;6.22;5.30;;;;;;;-3.11;100.00;95188.47;5052592;28;25038;-72
2022/12/08 05:12:14;;;;;;;7.30;5.40;;;;;;;-3.07;100.00;95187.56;5057816;28;24435;-72
2022/12/08 05:14:41;;;;;;;9.80;5.22;;;;;;;-3.08;100.00;95186.69;5066437;28;24438;-72
2022/12/08 05:17:07;;;;;;;6.00;5.40;;;;;;;-3.11;100.00;95193.53;5068589;28;24453;-73
2022/12/08 05:19:35;;;;;;;8.95;6.15;;;;;;;-3.11;100.00;95188.47;5068601;28;24457;-71
2022/12/08 05:22:02;;;;;;;7.97;6.05;;;;;;;-3.09;100.00;95176.59;5060600;28;24435;-72
2022/12/08 05:24:29;;;;;;;9.53;6.17;;;;;;;-3.07;100.00;95185.03;5066847;28;24438;-72
2022/12/08 05:26:56;;;;;;;9.30;6.80;;;;;;;-3.24;100.00;95185.31;5068887;28;25003;-73
2022/12/08 05:29:22;;;;;;;6.68;5.53;;;;;;;-3.24;100.00;95188.69;5068459;28;24431;-72
2022/12/08 05:31:49;;;;;;;6.90;5.32;;;;;;;-3.34;100.00;95176.22;5068531;28;24442;-72
2022/12/08 05:34:15;;;;;;;8.50;5.17;;;;;;;-3.24;100.00;95180.25;5068140;28;24475;-72
2022/12/08 05:36:43;;;;;;;7.40;5.43;;;;;;;-3.23;100.00;95176.84;5068646;28;24435;-72
2022/12/08 05:39:12;;;;;;;6.78;5.22;;;;;;;-3.25;100.00;95186.19;5067989;28;24462;-72
2022/12/08 05:41:39;;;;;;;8.95;6.93;;;;;;;-3.16;100.00;95184.31;5068750;28;24791;-72
2022/12/08 05:44:06;;;;;;;11.88;7.97;;;;;;;-3.34;100.00;95184.66;5068167;28;24809;-72
2022/12/08 05:46:33;;;;;;;11.25;7.95;;;;;;;-3.32;100.00;95188.00;5062943;28;24461;-72
2022/12/08 05:49:00;;;;;;;12.02;8.10;;;;;;;-3.30;100.00;95187.97;5064899;28;24427;-72
2022/12/08 05:51:27;;;;;;;11.48;7.72;;;;;;;-3.30;100.00;95191.34;5070054;28;24520;-72
2022/12/08 05:53:55;;;;;;;10.40;7.10;;;;;;;-3.33;100.00;95185.50;5071907;28;25130;-73
2022/12/08 05:56:22;;;;;;;9.43;7.00;;;;;;;-3.36;100.00;95183.03;5072621;28;25014;-72
2022/12/08 05:58:49;;;;;;;9.18;6.93;;;;;;;-3.45;100.00;95178.94;5072105;28;24454;-73
2022/12/08 06:01:21;;;;;;;10.90;7.00;;;;;;;-3.45;100.00;95177.28;5072195;28;24527;-72
2022/12/08 06:03:47;;;;;;;11.17;6.37;;;;;;;-3.41;100.00;95175.53;5071918;28;24544;-71
2022/12/08 06:06:14;;;;;;;10.70;7.85;;;;;;;-3.38;100.00;95172.91;5072239;28;24438;-72
2022/12/08 06:08:40;;;;;;;11.30;7.90;;;;;;;-3.44;100.00;95178.94;5072186;28;24430;-72
2022/12/08 06:11:08;;;;;;;9.55;7.25;;;;;;;-3.42;100.00;95183.97;5072637;28;24423;-72
2022/12/08 06:13:35;;;;;;;8.05;6.70;;;;;;;-3.46;100.00;95182.34;5071323;28;24457;-72
2022/12/08 06:16:04;;;;;;;11.75;6.97;;;;;;;-3.48;100.00;95169.72;5072026;28;24452;-72
2022/12/08 06:18:31;;;;;;;9.95;6.18;;;;;;;-3.45;100.00;95173.88;5071840;28;24453;-72
2022/12/08 06:21:02;;;;;;;8.95;7.75;;;;;;;-3.35;100.00;95175.38;5072035;28;24442;-73
2022/12/08 06:23:28;;;;;;;10.27;8.43;;;;;;;-3.41;100.00;95181.41;5071606;28;24446;-73
2022/12/08 06:25:55;;;;;;;9.10;7.32;;;;;;;-3.44;100.00;95178.09;5072113;28;24435;-72
2022/12/08 06:28:23;;;;;;;9.95;7.03;;;;;;;-3.44;100.00;95176.41;5071708;28;24431;-72
2022/12/08 06:30:49;;;;;;;7.95;7.13;;;;;;;-3.39;100.00;95183.06;5071924;28;24454;-73
2022/12/08 06:33:16;;;;;;;8.30;6.10;;;;;;;-3.47;100.00;95178.97;5070881;28;24438;-72
2022/12/08 06:35:42;;;;;;;9.07;5.70;;;;;;;-3.51;100.00;95176.53;5072105;28;24436;-72
2022/12/08 06:38:09;;;;;;;12.35;6.63;;;;;;;-3.46;100.00;95180.66;5071508;28;24476;-72
2022/12/08 06:40:35;;;;;;;10.10;6.90;;;;;;;-3.60;100.00;95174.97;5071777;28;24428;-73
2022/12/08 06:43:02;;;;;;;10.65;7.28;;;;;;;-3.76;100.00;95174.41;5071591;28;24449;-72
2022/12/08 06:45:30;;;;;;;10.07;7.22;;;;;;;-3.84;100.00;95176.25;5071005;28;24427;-72
2022/12/08 06:47:56;;;;;;;8.52;6.35;;;;;;;-4.15;100.00;95175.91;5065029;28;24998;-72
2022/12/08 06:50:23;;;;;;;10.50;6.30;;;;;;;-4.17;100.00;95173.41;5066251;28;24438;-71
2022/12/08 06:52:49;;;;;;;7.25;5.80;;;;;;;-4.06;100.00;95174.94;5065987;28;24437;-72
2022/12/08 06:55:16;;;;;;;8.45;6.55;;;;;;;-3.96;100.00;95179.00;5070067;28;24533;-72
2022/12/08 06:57:42;;;;;;;10.23;7.50;;;;;;;-3.98;100.00;95181.53;5070447;28;25011;-73
2022/12/08 07:00:10;;;;;;;13.77;10.07;;;;;;;-4.18;100.00;95170.91;5069974;28;24435;-71
2022/12/08 07:02:38;;;;;;;12.05;8.82;;;;;;;-4.06;100.00;95170.69;5070430;28;24434;-72
2022/12/08 07:05:05;;;;;;;12.98;9.45;;;;;;;-4.03;100.00;95174.88;5070946;28;24494;-72
2022/12/08 07:07:32;;;;;;;15.77;9.93;;;;;;;-3.96;100.00;95176.47;5071504;28;24620;-72
2022/12/08 07:09:58;;;;;;;13.65;9.65;;;;;;;-3.86;100.00;95170.38;5070944;28;24434;-72
2022/12/08 07:12:24;;;;;;;14.68;10.80;;;;;;;-3.77;100.00;95180.34;5071240;28;24516;-72
2022/12/08 07:14:51;;;;;;;18.17;12.57;;;;;;;-3.74;100.00;95187.06;5070373;28;24434;-72
2022/12/08 07:17:17;;;;;;;16.60;12.02;;;;;;;-3.70;100.00;95181.91;5071375;28;24439;-72
2022/12/08 07:19:45;;;;;;;17.33;11.30;;;;;;;-3.66;100.00;95186.06;5070829;28;24454;-72
2022/12/08 07:22:12;;;;;;;15.80;10.60;;;;;;;-3.66;100.00;95182.72;5068334;28;24442;-72
2022/12/08 07:24:38;;;;;;;16.97;9.37;;;;;;;-3.70;100.00;95181.91;5069941;28;25026;-72
2022/12/08 07:27:05;;;;;;;16.92;9.25;;;;;;;-3.79;100.00;95183.75;5069407;28;24433;-72
2022/12/08 07:29:31;;;;;;;11.00;8.52;;;;;;;-3.94;100.00;95188.19;5069018;28;24994;-72
2022/12/08 07:31:58;;;;;;;20.38;11.70;;;;;;;-3.90;100.00;95186.47;5070151;28;24439;-72
2022/12/08 07:34:24;;;;;;;11.73;9.82;;;;;;;-3.72;100.00;95190.38;5060472;28;24789;-72
2022/12/08 07:36:52;;;;;;;13.38;9.43;;;;;;;-3.51;100.00;95195.09;5071237;28;24433;-71
2022/12/08 07:39:19;;;;;;;14.10;9.32;;;;;;;-3.34;100.00;95199.84;5068746;28;24457;-72
2022/12/08 07:41:45;;;;;;;13.70;9.93;;;;;;;-3.22;100.00;95192.03;5066074;28;24430;-72
2022/12/08 07:44:12;;;;;;;22.17;13.55;;;;;;;-3.10;100.00;95187.59;5067933;28;24429;-72
2022/12/08 07:46:38;;;;;;;17.05;12.35;;;;;;;-3.00;100.00;95191.63;5066022;28;24427;-72
2022/12/08 07:49:05;;;;;;;16.48;9.90;;;;;;;-2.98;100.00;95180.59;5055018;28;24426;-73
2022/12/08 07:51:31;;;;;;;10.00;8.18;;;;;;;-2.88;100.00;95185.50;5055502;28;24434;-73
2022/12/08 07:53:59;;;;;;;10.90;8.02;;;;;;;-2.87;100.00;95187.97;5063721;28;24435;-73
2022/12/08 07:56:25;;;;;;;9.95;7.68;;;;;;;-2.91;100.00;95181.31;5059449;28;24457;-72
2022/12/08 07:58:52;;;;;;;8.90;7.72;;;;;;;-2.86;100.00;95178.69;5060487;28;24455;-73
2022/12/08 08:01:21;;;;;;;11.40;7.60;;;;;;;-2.74;100.00;95174.22;5062971;28;24423;-70
2022/12/08 08:03:47;;;;;;;9.18;6.95;;;;;;;-2.51;100.00;95171.19;5068104;28;24995;-73
2022/12/08 08:06:14;;;;;;;14.07;8.07;;;;;;;-2.46;100.00;95174.44;5066159;28;24438;-73
2022/12/08 08:08:41;;;;;;;12.35;8.70;;;;;;;-2.54;100.00;95171.25;5064150;28;24447;-70
2022/12/08 08:11:09;;;;;;;16.02;8.75;;;;;;;-2.57;100.00;95173.00;5062281;28;24433;-72
2022/12/08 08:13:36;;;;;;;12.55;8.65;;;;;;;-2.57;100.00;95162.88;5069811;28;24441;-73
2022/12/08 08:16:03;;;;;;;11.40;8.52;;;;;;;-2.38;100.00;95159.06;5066408;28;24504;-74
2022/12/08 08:18:30;;;;;;;10.93;7.80;;;;;;;-2.28;100.00;95162.22;5050734;28;24981;-73
2022/12/08 08:20:56;;;;;;;10.50;8.10;;;;;;;-2.31;100.00;95162.28;5068309;28;24434;-73
2022/12/08 08:23:23;;;;;;;11.47;8.97;;;;;;;-2.29;100.00;95171.53;5057265;28;24801;-75
2022/12/08 08:25:49;;;;;;;15.50;9.50;;;;;;;-2.43;100.00;95168.47;5067979;28;24442;-74
2022/12/08 08:28:18;;;;;;;11.70;9.50;;;;;;;-2.44;100.00;95165.09;5054283;28;24441;-74
2022/12/08 08:30:45;;;;;;;11.48;9.13;;;;;;;-2.35;100.00;95161.53;5062352;28;24434;-74
2022/12/08 08:33:12;;;;;;;9.02;7.65;;;;;;;-2.35;100.00;95163.22;5053760;28;24439;-73
2022/12/08 08:35:38;;;;;;;13.10;7.20;;;;;;;-2.25;100.00;95164.69;5065073;28;24426;-73
2022/12/08 08:38:05;;;;;;;8.82;6.18;;;;;;;-2.13;100.00;95161.88;5068641;28;24437;-74
2022/12/08 08:40:32;;;;;;;8.73;7.00;;;;;;;-1.98;100.00;95165.75;5066604;28;24450;-74
2022/12/08 08:43:00;;;;;;;8.65;6.57;;;;;;;-1.86;100.00;95167.16;5063050;28;24431;-73
2022/12/08 08:45:28;;;;;;;10.03;6.67;;;;;;;-1.74;100.00;95164.34;5067210;28;24506;-73
2022/12/08 08:47:54;;;;;;;9.77;7.05;;;;;;;-1.92;100.00;95168.16;5069540;28;24438;-73
2022/12/08 08:50:21;;;;;;;10.20;7.43;;;;;;;-1.73;100.00;95166.81;5067174;28;24492;-73
2022/12/08 08:52:49;;;;;;;10.40;6.90;;;;;;;-1.46;100.00;95167.00;5064412;28;24439;-73
2022/12/08 08:55:15;;;;;;;13.98;7.05;;;;;;;-1.58;100.00;95169.88;5058820;28;24512;-73
2022/12/08 08:57:42;;;;;;;9.25;6.10;;;;;;;-1.30;100.00;95164.88;5064733;28;24650;-73
2022/12/08 09:00:10;;;;;;;9.32;6.32;;;;;;;-0.98;100.00;95156.41;5067181;28;24453;-73
2022/12/08 09:02:38;;;;;;;8.32;6.22;;;;;;;-0.95;100.00;95150.41;5064702;28;24431;-73
2022/12/08 09:05:06;;;;;;;7.93;6.22;;;;;;;-0.77;100.00;95148.19;5063985;28;24805;-73
2022/12/08 09:07:33;;;;;;;7.45;6.10;;;;;;;-0.54;100.00;95141.59;5053624;28;25060;-74
2022/12/08 09:10:00;;;;;;;9.33;6.17;;;;;;;-0.30;100.00;95151.03;5060669;28;24468;-75
2022/12/08 09:12:26;;;;;;;6.25;5.25;;;;;;;-0.04;100.00;95137.50;5066536;28;25006;-74
2022/12/08 09:14:53;;;;;;;8.10;6.40;;;;;;;0.12;100.00;95144.66;5068541;28;24430;-74
2022/12/08 09:17:19;;;;;;;6.80;5.70;;;;;;;-0.27;100.00;95134.84;5066672;28;24427;-74
2022/12/08 09:19:47;;;;;;;7.43;5.93;;;;;;;-0.36;100.00;95135.13;5069014;28;24450;-74
2022/12/08 09:22:15;;;;;;;7.03;6.32;;;;;;;-0.45;100.00;95127.75;5066311;28;24439;-73
2022/12/08 09:24:41;;;;;;;7.82;5.85;;;;;;;-0.55;100.00;95127.22;5063303;28;24466;-73
2022/12/08 09:27:08;;;;;;;9.75;6.50;;;;;;;-0.63;100.00;95136.75;5066596;28;24431;-73
2022/12/08 09:29:34;;;;;;;7.05;5.97;;;;;;;-0.54;100.00;95136.50;5063703;28;24434;-74
2022/12/08 09:32:01;;;;;;;7.97;6.15;;;;;;;-0.29;100.00;95131.53;5060758;28;25209;-73
2022/12/08 09:34:30;;;;;;;11.35;6.75;;;;;;;-0.21;100.00;95129.56;5062841;28;24530;-73
2022/12/08 09:36:58;;;;;;;8.50;6.50;;;;;;;-0.16;100.00;95129.41;5067299;28;24430;-74
2022/12/08 09:39:25;;;;;;;6.82;5.97;;;;;;;0.02;100.00;95126.28;5063295;28;24454;-73
2022/12/08 09:42:01;;;;;;;7.97;6.43;;;;;;;0.01;100.00;95132.28;5063758;28;24442;-73
2022/12/08 09:44:50;;;;;;;11.07;6.43;;;;;;;0.21;100.00;95132.44;5063965;28;24898;-74
2022/12/08 09:47:21;;;;;;;11.53;6.07;;;;;;;0.29;100.00;95137.28;5060887;28;24430;-74
2022/12/08 09:49:55;;;;;;;8.35;6.40;;;;;;;0.38;100.00;95134.44;5064142;28;24438;-73
2022/12/08 09:52:26;;;;;;;12.73;6.75;;;;;;;0.67;100.00;95122.44;5069194;28;24443;-73
2022/12/08 09:54:52;;;;;;;8.88;6.63;;;;;;;0.59;100.00;95132.03;5063770;28;24512;-73
2022/12/08 09:57:22;;;;;;;12.68;6.32;;;;;;;0.47;100.00;95130.75;5067376;28;24419;-74
2022/12/08 09:59:54;;;;;;;7.10;5.88;;;;;;;0.40;100.00;95125.03;5063684;28;24477;-74
2022/12/08 10:02:23;;;;;;;6.63;5.60;;;;;;;0.26;100.00;95126.38;5069117;28;24438;-74
2022/12/08 10:04:50;;;;;;;7.75;6.05;;;;;;;0.55;100.00;95121.13;5063530;28;24431;-74
2022/12/08 10:07:20;;;;;;;6.78;5.80;;;;;;;0.95;100.00;95125.66;5059070;28;24430;-74
2022/12/08 10:09:58;;;;;;;7.85;6.13;;;;;;;0.82;100.00;95119.38;5063928;28;24430;-74
2022/12/08 10:12:29;;;;;;;9.57;5.67;;;;;;;1.12;100.00;95111.50;5055426;28;24553;-74
2022/12/08 10:15:09;;;;;;;6.88;5.70;;;;;;;1.37;100.00;95104.63;5064143;28;24431;-73
2022/12/08 10:17:40;;;;;;;8.07;5.65;;;;;;;1.51;100.00;95100.69;5067641;28;24419;-74
2022/12/08 10:20:14;;;;;;;7.10;6.22;;;;;;;1.35;100.00;95100.44;5062835;28;25102;-74
2022/12/08 10:22:41;;;;;;;6.82;5.95;;;;;;;1.50;100.00;95096.47;5067025;28;24446;-74
2022/12/08 10:25:15;;;;;;;7.13;5.85;;;;;;;1.52;100.00;95094.69;5059876;28;24457;-73
2022/12/08 10:27:41;;;;;;;7.70;5.82;;;;;;;1.84;100.00;95091.72;5067677;28;24446;-74
2022/12/08 10:30:11;;;;;;;7.50;5.95;;;;;;;2.07;100.00;95090.78;5064568;28;24430;-73
2022/12/08 10:32:40;;;;;;;5.32;4.80;;;;;;;1.88;100.00;95088.16;5068159;28;24427;-73
2022/12/08 10:35:10;;;;;;;8.10;4.75;;;;;;;2.16;100.00;95084.50;5064466;28;24435;-73
2022/12/08 10:37:38;;;;;;;6.20;4.63;;;;;;;2.12;100.00;95083.78;5068661;28;24509;-73
2022/12/08 10:40:11;;;;;;;5.00;4.50;;;;;;;1.67;100.00;95082.19;5068471;28;25038;-73
2022/12/08 10:42:40;;;;;;;6.57;4.93;;;;;;;1.86;100.00;95084.84;5071754;28;24442;-72
2022/12/08 10:45:22;;;;;;;4.38;3.83;;;;;;;1.99;100.00;95082.63;5066125;28;24430;-71
2022/12/08 10:47:57;;;;;;;6.88;4.40;;;;;;;1.82;100.00;95074.81;5067996;28;24789;-72
2022/12/08 10:50:30;;;;;;;5.07;4.38;;;;;;;1.49;100.00;95077.78;5072178;28;24438;-71
2022/12/08 10:52:59;;;;;;;6.63;4.45;;;;;;;1.74;100.00;95072.53;5071362;28;24435;-71
2022/12/08 10:55:28;;;;;;;4.80;4.30;;;;;;;1.99;100.00;95069.84;5069373;28;24431;-71
2022/12/08 10:57:54;;;;;;;7.10;4.43;;;;;;;1.81;100.00;95063.75;5065956;28;24988;-71
2022/12/08 11:00:24;;;;;;;4.90;4.40;;;;;;;2.00;100.00;95061.28;5069359;28;24454;-71
2022/12/08 11:02:57;;;;;;;6.32;4.82;;;;;;;1.94;100.00;95061.56;5065773;28;24434;-72
2022/12/08 11:05:27;;;;;;;7.20;5.20;;;;;;;2.02;100.00;95054.41;5064936;28;24429;-71
2022/12/08 11:07:55;;;;;;;18.02;5.30;;;;;;;2.24;100.00;95049.25;5066023;28;24431;-72
2022/12/08 11:10:32;;;;;;;9.80;5.43;;;;;;;2.04;100.00;95050.06;5069168;28;24431;-71
2022/12/08 11:13:01;;;;;;;6.38;5.03;;;;;;;1.94;100.00;95041.13;5064727;28;25066;-71
2022/12/08 11:15:33;;;;;;;5.47;4.37;;;;;;;1.74;100.00;95046.19;5065090;28;24430;-71
2022/12/08 11:18:02;;;;;;;5.83;4.17;;;;;;;1.69;100.00;95039.53;5066373;28;24427;-70
2022/12/08 11:20:39;;;;;;;5.50;4.70;;;;;;;1.81;100.00;95034.84;5069631;28;24492;-71
2022/12/08 11:23:19;;;;;;;6.13;4.55;;;;;;;2.10;100.00;95026.81;5066030;28;24782;-70
2022/12/08 11:25:49;;;;;;;9.18;4.63;;;;;;;2.12;100.00;95027.59;5069819;28;24488;-71
2022/12/08 11:28:22;;;;;;;6.40;4.85;;;;;;;2.07;100.00;95029.50;5062798;28;24975;-70
2022/12/08 11:30:57;;;;;;;6.18;4.28;;;;;;;2.01;100.00;95019.56;5069500;28;24427;-70
2022/12/08 11:33:26;;;;;;;5.45;3.90;;;;;;;1.97;100.00;95023.13;5070535;28;25076;-70
2022/12/08 11:35:57;;;;;;;4.90;4.07;;;;;;;1.81;100.00;95024.63;5069599;28;24467;-71